Palau, PW

3:01 PM PWT on October 01, 2014 (GMT +0900)
Guam International | Change Station
CLOSE
Current Station
Airport
Location: Guam Agana,
Elevation: 269 ft
Nearby Weather Stations

Elev 269 ft 13.48 °N, 144.80 °E | Updated 7 minutes ago

Mostly Cloudy
Mostly Cloudy
85 °F
Feels Like 95 °F
N
9
Wind Variable Wind from SSW

Today
High -- | Low -- °F
--% Chance of Precip.
Yesterday
High -- | Low -- °F
Precip. -- in
5:49 AM 5:53 PM
Waxing Crescent, 44% visible
Pressure 29.54 in
Visibility 10.0 miles
Clouds Mostly Cloudy 2300 ft
Mostly Cloudy 2800 ft
Heat Index 95 °F
Dew Point 77 °F
Humidity 77%
Rainfall 2.52 in
Snow Depth Not available.
UV 3 out of 12
Pollen Not available.
Air Quality Not available.
Flu Activity Not available.
METAR PGUM 010554Z 21008KT 10SM BKN023 BKN028 29/25 A2956 RMK AO2 SLP003 T02940250 10306 20289 56008

More Conditions Fewer Conditions

Pressure 29.54 in
Visibility 10.0 miles
Clouds Mostly Cloudy 2300 ft
Mostly Cloudy 2800 ft
Heat Index 95 °F
Dew Point 77 °F
Humidity 77%
Rainfall 2.52 in
Snow Depth Not available.
UV 3 out of 12
Pollen Not available.
Air Quality Not available.
Flu Activity Not available.
METAR PGUM 010554Z 21008KT 10SM BKN023 BKN028 29/25 A2956 RMK AO2 SLP003 T02940250 10306 20289 56008

More Conditions Fewer Conditions

10-Day Weather Forecast

Almanac

Astronomy

Oct. 01, 2014 Rise Set
Actual Time 5:49 AM PWT 5:53 PM PWT
Civil Twilight 5:28 AM PWT 6:13 PM PWT
Nautical Twilight 5:04 AM PWT 6:38 PM PWT
Astronomical Twilight 4:40 AM PWT 7:02 PM PWT
Moon 11:28 AM PWT 11:34 PM PWT
Length of Visible Light 12h 45m
Length of Day
12h 03m
Tomorrow will be 0m 25s shorter.
Waxing Crescent, 44% of the Moon is Illuminated
Today
Waxing Crescent
Oct 1
First Quarter
Oct 8
Full
Oct 15
Last Quarter
Oct 23
New

Community

WunderPhotos

Upload Photos

1,757,877 photos uploaded!

Nearby

Snow Depth

Station Depth Elevation
No new snow has been reported.

Earthquake Activity

City Distance Mag. Time & Date
No recent earthquake activity has been reported nearby.
Minimum magnitude displayed is 2.5.

Coastal Water Temperatures

Place Temperature
No Stations Reporting

Nearby Weather Stations